sensor_id;sensor_type;location;lat;lon;timestamp;pressure;altitude;pressure_sealevel;temperature;humidity
7109;BME280;29079;41.930;25.558;2022-11-21T00:00:25;98596.91;;;15.63;85.66
7109;BME280;29079;41.930;25.558;2022-11-21T00:02:56;98576.69;;;15.67;85.22
7109;BME280;29079;41.930;25.558;2022-11-21T00:05:27;98588.47;;;15.66;85.17
7109;BME280;29079;41.930;25.558;2022-11-21T00:07:58;98589.66;;;15.64;85.25
7109;BME280;29079;41.930;25.558;2022-11-21T00:10:27;98585.72;;;15.60;85.33
7109;BME280;29079;41.930;25.558;2022-11-21T00:12:57;98574.56;;;15.63;85.62
7109;BME280;29079;41.930;25.558;2022-11-21T00:15:27;98573.03;;;15.75;84.81
7109;BME280;29079;41.930;25.558;2022-11-21T00:17:57;98554.34;;;15.67;85.26
7109;BME280;29079;41.930;25.558;2022-11-21T00:20:28;98541.91;;;15.66;85.55
7109;BME280;29079;41.930;25.558;2022-11-21T00:22:58;98529.28;;;15.66;85.61
7109;BME280;29079;41.930;25.558;2022-11-21T00:25:27;98543.50;;;15.60;85.90
7109;BME280;29079;41.930;25.558;2022-11-21T00:27:57;98552.78;;;15.58;86.44
7109;BME280;29079;41.930;25.558;2022-11-21T00:30:27;98555.47;;;15.58;86.44
7109;BME280;29079;41.930;25.558;2022-11-21T00:32:56;98561.53;;;15.60;86.13
7109;BME280;29079;41.930;25.558;2022-11-21T00:35:26;98543.44;;;15.54;86.43
7109;BME280;29079;41.930;25.558;2022-11-21T00:37:57;98507.75;;;15.60;85.91
7109;BME280;29079;41.930;25.558;2022-11-21T00:40:27;98476.09;;;15.62;85.76
7109;BME280;29079;41.930;25.558;2022-11-21T00:42:56;98456.66;;;15.60;85.81
7109;BME280;29079;41.930;25.558;2022-11-21T00:45:26;98445.44;;;15.56;86.08
7109;BME280;29079;41.930;25.558;2022-11-21T00:47:56;98446.66;;;15.54;86.57
7109;BME280;29079;41.930;25.558;2022-11-21T00:50:25;98436.47;;;15.49;86.87
7109;BME280;29079;41.930;25.558;2022-11-21T00:52:55;98449.09;;;15.48;86.47
7109;BME280;29079;41.930;25.558;2022-11-21T00:55:26;98434.00;;;15.47;86.80
7109;BME280;29079;41.930;25.558;2022-11-21T00:57:55;98436.88;;;15.46;87.21
7109;BME280;29079;41.930;25.558;2022-11-21T01:00:25;98429.81;;;15.45;87.39
7109;BME280;29079;41.930;25.558;2022-11-21T01:02:55;98437.06;;;15.44;87.55
7109;BME280;29079;41.930;25.558;2022-11-21T01:05:24;98438.34;;;15.48;86.83
7109;BME280;29079;41.930;25.558;2022-11-21T01:07:54;98439.44;;;15.54;87.02
7109;BME280;29079;41.930;25.558;2022-11-21T01:10:23;98419.13;;;15.52;87.12
7109;BME280;29079;41.930;25.558;2022-11-21T01:12:55;98449.94;;;15.49;87.40
7109;BME280;29079;41.930;25.558;2022-11-21T01:15:25;98457.41;;;15.54;87.46
7109;BME280;29079;41.930;25.558;2022-11-21T01:17:54;98458.19;;;15.47;87.66
7109;BME280;29079;41.930;25.558;2022-11-21T01:20:24;98444.50;;;15.42;87.66
7109;BME280;29079;41.930;25.558;2022-11-21T01:22:53;98432.50;;;15.45;87.57
7109;BME280;29079;41.930;25.558;2022-11-21T01:25:23;98435.16;;;15.38;88.08
7109;BME280;29079;41.930;25.558;2022-11-21T01:27:52;98445.84;;;15.31;88.60
7109;BME280;29079;41.930;25.558;2022-11-21T01:30:23;98452.00;;;15.25;89.01
7109;BME280;29079;41.930;25.558;2022-11-21T01:32:53;98446.75;;;15.39;87.23
7109;BME280;29079;41.930;25.558;2022-11-21T01:35:22;98441.16;;;15.40;87.39
7109;BME280;29079;41.930;25.558;2022-11-21T01:37:52;98430.41;;;15.40;87.37
7109;BME280;29079;41.930;25.558;2022-11-21T01:40:22;98436.28;;;15.50;86.40
7109;BME280;29079;41.930;25.558;2022-11-21T01:42:52;98422.44;;;15.54;86.22
7109;BME280;29079;41.930;25.558;2022-11-21T01:48:11;98406.78;;;15.64;85.41
7109;BME280;29079;41.930;25.558;2022-11-21T01:50:41;98434.38;;;15.73;85.22
7109;BME280;29079;41.930;25.558;2022-11-21T01:53:10;98430.75;;;15.80;84.66
7109;BME280;29079;41.930;25.558;2022-11-21T01:55:40;98406.75;;;15.86;84.46
7109;BME280;29079;41.930;25.558;2022-11-21T01:58:10;98413.69;;;16.01;83.87
7109;BME280;29079;41.930;25.558;2022-11-21T02:00:40;98383.28;;;16.01;84.04
7109;BME280;29079;41.930;25.558;2022-11-21T02:03:12;98371.03;;;15.98;84.62
7109;BME280;29079;41.930;25.558;2022-11-21T02:05:43;98356.34;;;16.01;84.69
7109;BME280;29079;41.930;25.558;2022-11-21T02:08:14;98362.75;;;15.93;85.48
7109;BME280;29079;41.930;25.558;2022-11-21T02:10:46;98373.72;;;15.92;85.57
7109;BME280;29079;41.930;25.558;2022-11-21T02:13:18;98376.22;;;16.00;85.46
7109;BME280;29079;41.930;25.558;2022-11-21T02:15:50;98360.88;;;15.94;85.64
7109;BME280;29079;41.930;25.558;2022-11-21T02:18:21;98374.31;;;15.94;86.15
7109;BME280;29079;41.930;25.558;2022-11-21T02:20:52;98387.97;;;15.92;86.41
7109;BME280;29079;41.930;25.558;2022-11-21T02:23:24;98390.31;;;16.02;85.88
7109;BME280;29079;41.930;25.558;2022-11-21T02:25:57;98381.59;;;15.93;86.70
7109;BME280;29079;41.930;25.558;2022-11-21T02:28:27;98386.56;;;16.03;85.97
7109;BME280;29079;41.930;25.558;2022-11-21T02:30:58;98397.75;;;16.00;85.98
7109;BME280;29079;41.930;25.558;2022-11-21T02:33:28;98403.13;;;16.00;86.03
7109;BME280;29079;41.930;25.558;2022-11-21T02:35:58;98402.31;;;15.99;85.86
7109;BME280;29079;41.930;25.558;2022-11-21T02:38:28;98396.09;;;15.99;85.92
7109;BME280;29079;41.930;25.558;2022-11-21T02:41:02;98391.75;;;15.98;86.37
7109;BME280;29079;41.930;25.558;2022-11-21T02:43:35;98399.41;;;16.01;86.64
7109;BME280;29079;41.930;25.558;2022-11-21T02:46:06;98408.50;;;16.00;88.41
7109;BME280;29079;41.930;25.558;2022-11-21T02:48:36;98405.16;;;15.91;89.49
7109;BME280;29079;41.930;25.558;2022-11-21T02:51:06;98403.84;;;15.80;90.46
7109;BME280;29079;41.930;25.558;2022-11-21T02:53:35;98398.66;;;15.79;91.31
7109;BME280;29079;41.930;25.558;2022-11-21T02:56:06;98390.19;;;15.82;90.71
7109;BME280;29079;41.930;25.558;2022-11-21T02:58:36;98389.09;;;15.76;89.78
7109;BME280;29079;41.930;25.558;2022-11-21T03:01:06;98396.09;;;15.71;90.02
7109;BME280;29079;41.930;25.558;2022-11-21T03:03:36;98392.34;;;15.65;90.22
7109;BME280;29079;41.930;25.558;2022-11-21T03:06:05;98400.19;;;15.60;90.08
7109;BME280;29079;41.930;25.558;2022-11-21T03:08:35;98409.47;;;15.57;90.43
7109;BME280;29079;41.930;25.558;2022-11-21T03:11:04;98415.66;;;15.58;90.16
7109;BME280;29079;41.930;25.558;2022-11-21T03:13:36;98421.03;;;15.58;89.93
7109;BME280;29079;41.930;25.558;2022-11-21T03:16:06;98416.06;;;15.55;90.26
7109;BME280;29079;41.930;25.558;2022-11-21T03:18:35;98416.44;;;15.52;90.32
7109;BME280;29079;41.930;25.558;2022-11-21T03:21:05;98410.44;;;15.49;90.35
7109;BME280;29079;41.930;25.558;2022-11-21T03:23:34;98408.78;;;15.48;90.67
7109;BME280;29079;41.930;25.558;2022-11-21T03:26:04;98405.44;;;15.46;90.53
7109;BME280;29079;41.930;25.558;2022-11-21T03:28:33;98398.63;;;15.44;91.02
7109;BME280;29079;41.930;25.558;2022-11-21T03:31:04;98391.97;;;15.40;91.21
7109;BME280;29079;41.930;25.558;2022-11-21T03:33:34;98405.34;;;15.33;91.96
7109;BME280;29079;41.930;25.558;2022-11-21T03:36:04;98393.09;;;15.30;92.04
7109;BME280;29079;41.930;25.558;2022-11-21T03:38:33;98400.34;;;15.30;92.35
7109;BME280;29079;41.930;25.558;2022-11-21T03:41:03;98396.38;;;15.26;92.56
7109;BME280;29079;41.930;25.558;2022-11-21T03:43:53;98392.88;;;15.25;92.79
7109;BME280;29079;41.930;25.558;2022-11-21T03:46:24;98387.31;;;15.27;92.13
7109;BME280;29079;41.930;25.558;2022-11-21T03:48:54;98393.31;;;15.29;91.17
7109;BME280;29079;41.930;25.558;2022-11-21T03:51:24;98378.47;;;15.33;90.31
7109;BME280;29079;41.930;25.558;2022-11-21T03:53:54;98371.88;;;15.36;89.67
7109;BME280;29079;41.930;25.558;2022-11-21T03:56:23;98374.94;;;15.32;89.86
7109;BME280;29079;41.930;25.558;2022-11-21T03:58:53;98368.97;;;15.37;89.64
7109;BME280;29079;41.930;25.558;2022-11-21T04:01:24;98363.59;;;15.37;89.47
7109;BME280;29079;41.930;25.558;2022-11-21T04:03:59;98349.75;;;15.34;89.59
7109;BME280;29079;41.930;25.558;2022-11-21T04:06:29;98345.13;;;15.27;89.48
7109;BME280;29079;41.930;25.558;2022-11-21T04:08:59;98340.81;;;15.33;88.84
7109;BME280;29079;41.930;25.558;2022-11-21T04:11:28;98342.50;;;15.34;88.41
7109;BME280;29079;41.930;25.558;2022-11-21T04:13:58;98342.69;;;15.32;88.44
7109;BME280;29079;41.930;25.558;2022-11-21T04:16:30;98341.22;;;15.30;87.61
7109;BME280;29079;41.930;25.558;2022-11-21T04:18:59;98347.22;;;15.32;86.52
7109;BME280;29079;41.930;25.558;2022-11-21T04:21:29;98348.75;;;15.41;84.96
7109;BME280;29079;41.930;25.558;2022-11-21T04:23:58;98339.16;;;15.32;85.12
7109;BME280;29079;41.930;25.558;2022-11-21T04:26:28;98355.28;;;15.32;84.17
7109;BME280;29079;41.930;25.558;2022-11-21T04:28:58;98351.44;;;15.41;83.02
7109;BME280;29079;41.930;25.558;2022-11-21T04:31:27;98349.97;;;15.39;83.14
7109;BME280;29079;41.930;25.558;2022-11-21T04:33:58;98354.72;;;15.37;83.32
7109;BME280;29079;41.930;25.558;2022-11-21T04:36:28;98357.97;;;15.32;83.16
7109;BME280;29079;41.930;25.558;2022-11-21T04:38:58;98348.88;;;15.26;82.83
7109;BME280;29079;41.930;25.558;2022-11-21T04:41:28;98351.50;;;15.20;83.30
7109;BME280;29079;41.930;25.558;2022-11-21T04:43:57;98342.59;;;15.19;82.60
7109;BME280;29079;41.930;25.558;2022-11-21T04:46:27;98331.78;;;15.12;82.20
7109;BME280;29079;41.930;25.558;2022-11-21T04:48:57;98328.91;;;15.14;82.55
7109;BME280;29079;41.930;25.558;2022-11-21T04:51:27;98315.28;;;15.15;81.30
7109;BME280;29079;41.930;25.558;2022-11-21T04:53:57;98312.84;;;15.21;81.03
7109;BME280;29079;41.930;25.558;2022-11-21T04:56:27;98330.13;;;15.11;81.69
7109;BME280;29079;41.930;25.558;2022-11-21T04:58:56;98327.03;;;15.14;81.61
7109;BME280;29079;41.930;25.558;2022-11-21T05:01:26;98329.59;;;15.23;80.79
7109;BME280;29079;41.930;25.558;2022-11-21T05:03:56;98322.53;;;15.15;81.05
7109;BME280;29079;41.930;25.558;2022-11-21T05:06:25;98322.72;;;15.13;81.71
7109;BME280;29079;41.930;25.558;2022-11-21T05:08:56;98321.03;;;15.12;81.50
7109;BME280;29079;41.930;25.558;2022-11-21T05:11:26;98315.72;;;15.19;80.69
7109;BME280;29079;41.930;25.558;2022-11-21T05:14:13;98309.69;;;15.10;81.75
7109;BME280;29079;41.930;25.558;2022-11-21T05:16:43;98290.88;;;15.10;81.62
7109;BME280;29079;41.930;25.558;2022-11-21T05:19:13;98288.53;;;15.07;82.21
7109;BME280;29079;41.930;25.558;2022-11-21T05:21:43;98289.19;;;15.09;81.43
7109;BME280;29079;41.930;25.558;2022-11-21T05:24:14;98289.41;;;15.08;81.51
7109;BME280;29079;41.930;25.558;2022-11-21T05:26:43;98281.34;;;15.08;81.48
7109;BME280;29079;41.930;25.558;2022-11-21T05:29:13;98289.19;;;15.09;81.12
7109;BME280;29079;41.930;25.558;2022-11-21T05:31:42;98291.63;;;15.04;81.52
7109;BME280;29079;41.930;25.558;2022-11-21T05:34:12;98304.84;;;15.06;81.04
7109;BME280;29079;41.930;25.558;2022-11-21T05:36:41;98298.03;;;15.03;81.10
7109;BME280;29079;41.930;25.558;2022-11-21T05:39:11;98303.03;;;15.06;80.51
7109;BME280;29079;41.930;25.558;2022-11-21T05:41:43;98307.75;;;15.04;79.93
7109;BME280;29079;41.930;25.558;2022-11-21T05:44:12;98310.63;;;15.03;79.45
7109;BME280;29079;41.930;25.558;2022-11-21T05:46:41;98304.44;;;15.02;78.43
7109;BME280;29079;41.930;25.558;2022-11-21T05:49:11;98322.22;;;15.03;78.26
7109;BME280;29079;41.930;25.558;2022-11-21T05:51:40;98316.06;;;15.09;76.64
7109;BME280;29079;41.930;25.558;2022-11-21T05:54:11;98314.84;;;15.12;75.95
7109;BME280;29079;41.930;25.558;2022-11-21T05:56:41;98326.41;;;15.12;74.60
7109;BME280;29079;41.930;25.558;2022-11-21T05:59:12;98332.63;;;15.13;73.10
7109;BME280;29079;41.930;25.558;2022-11-21T06:01:41;98340.81;;;15.26;71.43
7109;BME280;29079;41.930;25.558;2022-11-21T06:04:28;98353.00;;;15.29;71.40
7109;BME280;29079;41.930;25.558;2022-11-21T06:06:58;98339.34;;;15.30;70.91
7109;BME280;29079;41.930;25.558;2022-11-21T06:09:28;98357.97;;;15.32;71.45
7109;BME280;29079;41.930;25.558;2022-11-21T06:11:58;98350.16;;;15.37;71.02
7109;BME280;29079;41.930;25.558;2022-11-21T06:14:29;98353.47;;;15.39;71.29
7109;BME280;29079;41.930;25.558;2022-11-21T06:16:58;98358.50;;;15.42;71.70
7109;BME280;29079;41.930;25.558;2022-11-21T06:19:28;98343.41;;;15.48;71.41
7109;BME280;29079;41.930;25.558;2022-11-21T06:21:57;98355.19;;;15.47;71.28
7109;BME280;29079;41.930;25.558;2022-11-21T06:24:27;98355.22;;;15.54;71.04
7109;BME280;29079;41.930;25.558;2022-11-21T06:26:57;98356.91;;;15.55;70.99
7109;BME280;29079;41.930;25.558;2022-11-21T06:29:28;98363.75;;;15.57;70.96
7109;BME280;29079;41.930;25.558;2022-11-21T06:31:58;98355.09;;;15.62;70.57
7109;BME280;29079;41.930;25.558;2022-11-21T06:34:27;98376.84;;;15.67;69.97
7109;BME280;29079;41.930;25.558;2022-11-21T06:36:57;98367.34;;;15.71;69.83
7109;BME280;29079;41.930;25.558;2022-11-21T06:39:27;98385.59;;;15.76;70.39
7109;BME280;29079;41.930;25.558;2022-11-21T06:41:57;98369.72;;;15.81;69.63
7109;BME280;29079;41.930;25.558;2022-11-21T06:44:26;98387.31;;;15.83;69.17
7109;BME280;29079;41.930;25.558;2022-11-21T06:46:58;98377.03;;;15.94;68.66
7109;BME280;29079;41.930;25.558;2022-11-21T06:49:28;98392.91;;;15.89;69.13
7109;BME280;29079;41.930;25.558;2022-11-21T06:51:58;98400.00;;;15.96;68.74
7109;BME280;29079;41.930;25.558;2022-11-21T06:54:27;98396.88;;;15.93;69.13
7109;BME280;29079;41.930;25.558;2022-11-21T06:56:57;98394.22;;;15.99;68.60
7109;BME280;29079;41.930;25.558;2022-11-21T06:59:27;98386.38;;;16.05;67.98
7109;BME280;29079;41.930;25.558;2022-11-21T07:01:57;98376.88;;;16.09;66.93
7109;BME280;29079;41.930;25.558;2022-11-21T07:04:28;98386.47;;;16.18;66.15
7109;BME280;29079;41.930;25.558;2022-11-21T07:06:57;98396.38;;;16.17;66.26
7109;BME280;29079;41.930;25.558;2022-11-21T07:09:27;98397.81;;;16.13;66.63
7109;BME280;29079;41.930;25.558;2022-11-21T07:12:02;98400.28;;;16.08;66.76
7109;BME280;29079;41.930;25.558;2022-11-21T07:14:46;98407.13;;;16.17;67.36
7109;BME280;29079;41.930;25.558;2022-11-21T07:17:17;98400.75;;;16.18;66.82
7109;BME280;29079;41.930;25.558;2022-11-21T07:19:48;98414.00;;;16.20;67.22
7109;BME280;29079;41.930;25.558;2022-11-21T07:22:17;98416.34;;;16.36;65.11
7109;BME280;29079;41.930;25.558;2022-11-21T07:24:47;98392.94;;;16.37;65.15
7109;BME280;29079;41.930;25.558;2022-11-21T07:27:17;98401.03;;;16.37;65.86
7109;BME280;29079;41.930;25.558;2022-11-21T07:29:46;98387.59;;;16.50;64.67
7109;BME280;29079;41.930;25.558;2022-11-21T07:32:16;98381.44;;;16.70;63.43
7109;BME280;29079;41.930;25.558;2022-11-21T07:34:47;98362.81;;;16.75;63.67
7109;BME280;29079;41.930;25.558;2022-11-21T07:37:17;98365.72;;;16.80;63.31
7109;BME280;29079;41.930;25.558;2022-11-21T07:39:47;98370.50;;;16.92;62.49
7109;BME280;29079;41.930;25.558;2022-11-21T07:42:16;98361.41;;;16.99;62.44
7109;BME280;29079;41.930;25.558;2022-11-21T07:44:46;98353.31;;;17.06;61.97
7109;BME280;29079;41.930;25.558;2022-11-21T07:47:15;98351.25;;;17.15;62.28
7109;BME280;29079;41.930;25.558;2022-11-21T07:49:45;98352.06;;;17.22;61.96
7109;BME280;29079;41.930;25.558;2022-11-21T07:52:16;98353.75;;;17.30;61.20
7109;BME280;29079;41.930;25.558;2022-11-21T07:54:45;98347.09;;;17.46;59.95
7109;BME280;29079;41.930;25.558;2022-11-21T07:57:15;98345.00;;;17.54;59.99
7109;BME280;29079;41.930;25.558;2022-11-21T07:59:44;98349.94;;;17.64;58.55
7109;BME280;29079;41.930;25.558;2022-11-21T08:02:17;98345.56;;;17.70;59.31
7109;BME280;29079;41.930;25.558;2022-11-21T08:04:46;98327.94;;;17.81;58.10
7109;BME280;29079;41.930;25.558;2022-11-21T08:07:18;98347.00;;;17.92;57.79
7109;BME280;29079;41.930;25.558;2022-11-21T08:09:48;98354.03;;;18.07;56.60
7109;BME280;29079;41.930;25.558;2022-11-21T08:12:18;98356.66;;;18.20;56.52
7109;BME280;29079;41.930;25.558;2022-11-21T08:14:48;98373.22;;;18.31;56.86
7109;BME280;29079;41.930;25.558;2022-11-21T08:17:18;98377.59;;;18.32;56.46
7109;BME280;29079;41.930;25.558;2022-11-21T08:19:48;98382.94;;;18.38;56.68
7109;BME280;29079;41.930;25.558;2022-11-21T08:22:19;98386.22;;;18.47;56.34
7109;BME280;29079;41.930;25.558;2022-11-21T08:24:49;98397.22;;;18.59;56.29
7109;BME280;29079;41.930;25.558;2022-11-21T08:27:21;98403.59;;;18.65;55.45
7109;BME280;29079;41.930;25.558;2022-11-21T08:29:51;98412.78;;;18.64;56.13
7109;BME280;29079;41.930;25.558;2022-11-21T08:32:21;98408.16;;;18.71;55.28
7109;BME280;29079;41.930;25.558;2022-11-21T08:34:51;98415.63;;;18.69;54.83
7109;BME280;29079;41.930;25.558;2022-11-21T08:37:22;98426.44;;;18.69;55.85
7109;BME280;29079;41.930;25.558;2022-11-21T08:39:52;98419.78;;;18.71;55.64
7109;BME280;29079;41.930;25.558;2022-11-21T08:42:22;98416.00;;;18.79;53.96
7109;BME280;29079;41.930;25.558;2022-11-21T08:44:51;98412.84;;;18.89;53.47
7109;BME280;29079;41.930;25.558;2022-11-21T08:47:21;98406.19;;;18.91;53.71
7109;BME280;29079;41.930;25.558;2022-11-21T08:49:51;98412.81;;;18.95;54.24
7109;BME280;29079;41.930;25.558;2022-11-21T08:52:22;98410.47;;;19.06;53.25
7109;BME280;29079;41.930;25.558;2022-11-21T08:54:53;98406.09;;;19.05;52.88
7109;BME280;29079;41.930;25.558;2022-11-21T08:57:22;98402.88;;;18.89;54.40
7109;BME280;29079;41.930;25.558;2022-11-21T08:59:53;98409.69;;;18.99;53.35
7109;BME280;29079;41.930;25.558;2022-11-21T09:02:23;98394.50;;;18.98;53.51
7109;BME280;29079;41.930;25.558;2022-11-21T09:04:53;98402.56;;;19.04;52.90
7109;BME280;29079;41.930;25.558;2022-11-21T09:07:24;98398.41;;;19.08;52.90
7109;BME280;29079;41.930;25.558;2022-11-21T09:09:53;98386.13;;;19.06;53.41
7109;BME280;29079;41.930;25.558;2022-11-21T09:12:24;98396.31;;;19.04;53.22
7109;BME280;29079;41.930;25.558;2022-11-21T09:14:54;98391.41;;;18.94;52.20
7109;BME280;29079;41.930;25.558;2022-11-21T09:17:41;98395.19;;;18.86;54.38
7109;BME280;29079;41.930;25.558;2022-11-21T09:20:28;98400.19;;;18.83;53.34
7109;BME280;29079;41.930;25.558;2022-11-21T09:23:03;98401.88;;;18.77;53.09
7109;BME280;29079;41.930;25.558;2022-11-21T09:25:33;98409.44;;;18.61;53.49
7109;BME280;29079;41.930;25.558;2022-11-21T09:28:12;98410.53;;;18.47;53.79
7109;BME280;29079;41.930;25.558;2022-11-21T09:30:42;98416.41;;;18.37;53.84
7109;BME280;29079;41.930;25.558;2022-11-21T09:33:13;98404.78;;;18.37;53.97
7109;BME280;29079;41.930;25.558;2022-11-21T09:35:44;98406.25;;;18.33;53.90
7109;BME280;29079;41.930;25.558;2022-11-21T09:38:16;98396.94;;;18.29;54.31
7109;BME280;29079;41.930;25.558;2022-11-21T09:40:51;98393.81;;;18.25;54.30
7109;BME280;29079;41.930;25.558;2022-11-21T09:43:28;98393.44;;;18.21;54.75
7109;BME280;29079;41.930;25.558;2022-11-21T09:46:05;98396.72;;;18.23;53.89
7109;BME280;29079;41.930;25.558;2022-11-21T09:48:41;98397.16;;;18.14;53.99
7109;BME280;29079;41.930;25.558;2022-11-21T09:51:15;98405.91;;;18.09;54.52
7109;BME280;29079;41.930;25.558;2022-11-21T09:53:50;98401.16;;;18.11;54.61
7109;BME280;29079;41.930;25.558;2022-11-21T09:56:23;98386.84;;;18.04;55.58
7109;BME280;29079;41.930;25.558;2022-11-21T09:58:57;98392.25;;;18.04;54.22
7109;BME280;29079;41.930;25.558;2022-11-21T10:01:34;98389.13;;;18.07;54.27
7109;BME280;29079;41.930;25.558;2022-11-21T10:04:04;98394.69;;;18.12;52.98
7109;BME280;29079;41.930;25.558;2022-11-21T10:06:35;98388.91;;;18.02;54.35
7109;BME280;29079;41.930;25.558;2022-11-21T10:09:11;98379.56;;;18.04;54.08
7109;BME280;29079;41.930;25.558;2022-11-21T10:11:47;98387.88;;;18.03;54.00
7109;BME280;29079;41.930;25.558;2022-11-21T10:14:46;98386.00;;;18.03;54.21
7109;BME280;29079;41.930;25.558;2022-11-21T10:17:21;98379.78;;;18.03;54.25
7109;BME280;29079;41.930;25.558;2022-11-21T10:20:03;98376.88;;;17.98;54.60
7109;BME280;29079;41.930;25.558;2022-11-21T10:22:42;98377.28;;;18.01;54.32
7109;BME280;29079;41.930;25.558;2022-11-21T10:25:19;98384.16;;;18.04;53.22
7109;BME280;29079;41.930;25.558;2022-11-21T10:27:56;98373.56;;;18.02;54.56
7109;BME280;29079;41.930;25.558;2022-11-21T10:30:28;98367.31;;;18.02;53.85
7109;BME280;29079;41.930;25.558;2022-11-21T10:33:00;98368.16;;;18.02;53.51
7109;BME280;29079;41.930;25.558;2022-11-21T10:35:34;98361.69;;;18.03;54.31
7109;BME280;29079;41.930;25.558;2022-11-21T10:38:11;98364.00;;;18.00;54.75
7109;BME280;29079;41.930;25.558;2022-11-21T10:40:45;98357.97;;;18.11;53.19
7109;BME280;29079;41.930;25.558;2022-11-21T10:43:21;98359.00;;;18.10;53.15
7109;BME280;29079;41.930;25.558;2022-11-21T10:46:09;98352.97;;;18.08;52.45
7109;BME280;29079;41.930;25.558;2022-11-21T10:48:39;98350.88;;;18.10;52.81
7109;BME280;29079;41.930;25.558;2022-11-21T10:51:16;98356.28;;;18.17;53.09
7109;BME280;29079;41.930;25.558;2022-11-21T10:54:01;98347.75;;;18.13;52.89
7109;BME280;29079;41.930;25.558;2022-11-21T10:56:50;98347.53;;;18.15;51.65
7109;BME280;29079;41.930;25.558;2022-11-21T10:59:21;98357.25;;;18.22;51.54
7109;BME280;29079;41.930;25.558;2022-11-21T11:01:59;98355.63;;;18.21;51.55
7109;BME280;29079;41.930;25.558;2022-11-21T11:04:29;98363.28;;;18.24;51.09
7109;BME280;29079;41.930;25.558;2022-11-21T11:07:20;98369.13;;;18.21;51.03
7109;BME280;29079;41.930;25.558;2022-11-21T11:09:50;98364.97;;;18.25;51.17
7109;BME280;29079;41.930;25.558;2022-11-21T11:12:24;98362.28;;;18.19;51.74
7109;BME280;29079;41.930;25.558;2022-11-21T11:15:18;98350.06;;;18.09;52.49
7109;BME280;29079;41.930;25.558;2022-11-21T11:17:48;98361.47;;;18.05;52.28
7109;BME280;29079;41.930;25.558;2022-11-21T11:23:16;98353.16;;;18.06;50.96
7109;BME280;29079;41.930;25.558;2022-11-21T11:25:52;98351.56;;;17.99;51.09
7109;BME280;29079;41.930;25.558;2022-11-21T11:28:23;98358.19;;;17.96;50.88
7109;BME280;29079;41.930;25.558;2022-11-21T11:30:53;98356.97;;;17.92;50.75
7109;BME280;29079;41.930;25.558;2022-11-21T11:33:31;98356.53;;;17.88;50.54
7109;BME280;29079;41.930;25.558;2022-11-21T11:36:04;98361.53;;;17.91;49.30
7109;BME280;29079;41.930;25.558;2022-11-21T11:38:40;98348.25;;;17.90;49.82
7109;BME280;29079;41.930;25.558;2022-11-21T11:41:13;98355.72;;;17.81;50.71
7109;BME280;29079;41.930;25.558;2022-11-21T11:43:50;98358.22;;;17.83;49.02
7109;BME280;29079;41.930;25.558;2022-11-21T11:46:40;98361.34;;;17.86;49.42
7109;BME280;29079;41.930;25.558;2022-11-21T11:49:32;98366.53;;;17.81;48.92
7109;BME280;29079;41.930;25.558;2022-11-21T11:52:26;98364.63;;;17.82;48.53
7109;BME280;29079;41.930;25.558;2022-11-21T11:54:59;98365.72;;;17.74;49.05
7109;BME280;29079;41.930;25.558;2022-11-21T11:57:30;98359.50;;;17.67;49.32
7109;BME280;29079;41.930;25.558;2022-11-21T12:00:05;98364.06;;;17.66;49.19
7109;BME280;29079;41.930;25.558;2022-11-21T12:02:41;98360.72;;;17.64;49.19
7109;BME280;29079;41.930;25.558;2022-11-21T12:05:14;98360.75;;;17.57;49.86
7109;BME280;29079;41.930;25.558;2022-11-21T12:07:49;98356.63;;;17.48;50.48
7109;BME280;29079;41.930;25.558;2022-11-21T12:10:41;98362.84;;;17.42;51.06
7109;BME280;29079;41.930;25.558;2022-11-21T12:13:29;98369.69;;;17.38;52.52
7109;BME280;29079;41.930;25.558;2022-11-21T12:16:02;98369.09;;;17.29;52.13
7109;BME280;29079;41.930;25.558;2022-11-21T12:18:44;98369.50;;;17.26;52.83
7109;BME280;29079;41.930;25.558;2022-11-21T12:21:16;98376.97;;;17.17;54.24
7109;BME280;29079;41.930;25.558;2022-11-21T12:23:47;98384.00;;;17.12;56.24
7109;BME280;29079;41.930;25.558;2022-11-21T12:26:25;98389.41;;;17.05;57.37
7109;BME280;29079;41.930;25.558;2022-11-21T12:29:03;98396.44;;;16.93;60.66
7109;BME280;29079;41.930;25.558;2022-11-21T12:31:39;98399.91;;;16.80;61.61
7109;BME280;29079;41.930;25.558;2022-11-21T12:34:19;98412.94;;;16.69;63.38
7109;BME280;29079;41.930;25.558;2022-11-21T12:36:52;98416.66;;;16.62;64.01
7109;BME280;29079;41.930;25.558;2022-11-21T12:42:16;98410.94;;;16.36;67.15
7109;BME280;29079;41.930;25.558;2022-11-21T12:45:13;98405.16;;;16.33;66.12
7109;BME280;29079;41.930;25.558;2022-11-21T12:48:05;98407.78;;;16.19;66.76
7109;BME280;29079;41.930;25.558;2022-11-21T12:51:02;98407.75;;;16.13;68.56
7109;BME280;29079;41.930;25.558;2022-11-21T12:53:53;98408.56;;;16.07;69.94
7109;BME280;29079;41.930;25.558;2022-11-21T12:56:43;98406.88;;;15.99;69.70
7109;BME280;29079;41.930;25.558;2022-11-21T12:59:16;98405.19;;;15.98;70.84
7109;BME280;29079;41.930;25.558;2022-11-21T13:01:49;98408.69;;;15.92;72.40
7109;BME280;29079;41.930;25.558;2022-11-21T13:04:25;98409.25;;;15.87;72.05
7109;BME280;29079;41.930;25.558;2022-11-21T13:06:57;98414.00;;;15.85;71.21
7109;BME280;29079;41.930;25.558;2022-11-21T13:09:27;98421.25;;;15.84;72.17
7109;BME280;29079;41.930;25.558;2022-11-21T13:12:10;98423.75;;;15.86;71.27
7109;BME280;29079;41.930;25.558;2022-11-21T13:14:43;98419.41;;;15.85;70.87
7109;BME280;29079;41.930;25.558;2022-11-21T13:17:19;98425.41;;;15.87;70.39
7109;BME280;29079;41.930;25.558;2022-11-21T13:19:53;98425.41;;;15.87;70.25
7109;BME280;29079;41.930;25.558;2022-11-21T13:25:12;98426.66;;;15.84;71.17
7109;BME280;29079;41.930;25.558;2022-11-21T13:27:42;98423.56;;;15.88;72.10
7109;BME280;29079;41.930;25.558;2022-11-21T13:30:18;98417.56;;;15.92;70.22
7109;BME280;29079;41.930;25.558;2022-11-21T13:32:49;98415.34;;;16.02;70.59
7109;BME280;29079;41.930;25.558;2022-11-21T13:38:09;98414.16;;;16.12;68.34
7109;BME280;29079;41.930;25.558;2022-11-21T13:40:40;98415.59;;;16.08;69.02